Flight Track Log - Related Links

Times and Time Zones

All times are in EDT time to prevent confusion due to time zone crossing. See the AAY876 flight status page for this flight to view local times or setup timezone preferences in your user account.

Time Position Orientation Groundspeed Altitude Reporting Facility
EDT Latitude Longitude Course Direction KTS MPH feet Rate Location/Type
Tue 07:10:34 PM 35.3272 -85.4473 334° Northwest 355 409 14,800  Level FlightAware ADS-B (KMDQ)
Tue 07:11:00 PM 35.6183 -85.5761 330° Northwest  Level FlightAware Approximate
Tue 07:11:35 PM 35.4221 -85.5051 333° Northwest 361 415 17,600  Level FlightAware ADS-B (KMDQ)
Tue 07:12:15 PM 35.4834 -85.5425 334° Northwest 372 428 19,100 2,250 Climbing FlightAware ADS-B (KMDQ)
Tue 07:12:55 PM 35.5471 -85.5815 334° Northwest 381 438 20,600 2,100 Climbing FlightAware ADS-B (KMDQ)
Tue 07:13:35 PM 35.6115 -85.6208 333° Northwest 392 451 21,900 2,025 Climbing FlightAware ADS-B (KMDQ)
Tue 07:14:15 PM 35.6726 -85.6582 334° Northwest 398 458 23,300 2,175 Climbing FlightAware ADS-B (KMDQ)
Tue 07:14:55 PM 35.7359 -85.6970 333° Northwest 394 453 24,800 1,875 Climbing FlightAware ADS-B (KMDQ)
Tue 07:15:35 PM 35.8090 -85.7421 333° Northwest 405 466 25,800 1,575 Climbing FlightAware ADS-B (KMDQ)
Tue 07:16:15 PM 35.8681 -85.7785 333° Northwest 410 472 26,900 1,575 Climbing FlightAware ADS-B (KMDQ)
Tue 07:16:55 PM 35.9350 -85.8198 333° Northwest 414 476 27,900 1,823 Climbing FlightAware ADS-B (KMDQ)
Tue 07:17:34 PM 36.0084 -85.8651 333° Northwest 406 467 29,300 1,595 Climbing FlightAware ADS-B (KMDQ)
Tue 07:18:14 PM 36.0679 -85.9020 333° Northwest 416 479 30,000 1,500 Climbing FlightAware ADS-B (KMDQ)
Tue 07:19:34 PM 36.2096 -85.9900 333° Northwest 409 471 32,300 1,320 Climbing FlightAware ADS-B (KMDQ)
Tue 07:23:14 PM 36.5884 -86.2275 333° Northwest 403 464 36,600 1,142 Climbing FlightAware ADS-B
Tue 07:24:02 PM 36.6650 -86.2759 333° Northwest 407 468 37,400 706 Climbing FlightAware ADS-B
Tue 07:25:13 PM 36.7876 -86.3531 333° Northwest 408 470 38,000 293 Climbing FlightAware ADS-B
Tue 07:26:05 PM 36.8348 -86.3830 334° Northwest 407 468 38,000  Level FlightAware ADS-B
Tue 07:26:44 PM 36.9434 -86.4451 341° North 420 483 38,000  Level FlightAware ADS-B (YPEF)
Tue 07:27:28 PM 37.0278 -86.4731 347° North 430 495 38,000  Level FlightAware ADS-B (YPEF)
Tue 07:27:59 PM 37.0882 -86.4914 346° North 428 493 38,000  Level FlightAware ADS-B (YPEF)
Tue 07:28:29 PM 37.1416 -86.5079 346° North 428 493 38,000  Level FlightAware ADS-B (YPEF)
Tue 07:28:59 PM 37.1992 -86.5256 346° North 428 493 38,000  Level FlightAware ADS-B (YPEF)
Tue 07:29:30 PM 37.2589 -86.5439 346° North 427 491 38,000  Level FlightAware ADS-B (YPEF)
Tue 07:30:14 PM 37.3476 -86.5709 346° North 427 491 38,000  Level FlightAware ADS-B
Tue 07:30:44 PM 37.4054 -86.5886 346° North 425 489 38,000  Level FlightAware ADS-B (YPEF)
Tue 07:31:14 PM 37.4626 -86.6062 346° North 422 486 38,000  Level FlightAware ADS-B
Tue 07:31:45 PM 37.5217 -86.6245 346° North 421 484 38,000 79 Level FlightAware ADS-B (YPEF)
Tue 07:32:30 PM 37.6044 -86.6501 346° North 420 483 38,100  Climbing FlightAware ADS-B (YPEF)
Tue 07:33:12 PM 37.6868 -86.6756 346° North 420 483 38,000 -81 Descending FlightAware ADS-B
Tue 07:33:44 PM 37.7467 -86.6943 346° North 420 483 38,000  Level FlightAware ADS-B (YPEF)
Tue 07:34:14 PM 37.8046 -86.7122 346° North 420 483 38,000  Level FlightAware ADS-B
Tue 07:34:50 PM 37.8684 -86.7320 346° North 419 482 38,000  Level FlightAware ADS-B (YPEF)
Tue 07:35:44 PM 37.9725 -86.7646 346° North 419 482 38,000  Level FlightAware ADS-B (YPEF)
Tue 07:36:15 PM 38.0313 -86.7829 346° North 420 483 38,000  Level FlightAware ADS-B
Tue 07:36:57 PM 38.0486 -86.7883 346° North 421 484 38,000  Level FlightAware ADS-B
Tue 07:37:43 PM 38.1979 -86.8353 346° North 422 486 38,000  Level FlightAware ADS-B (YPEF)
Tue 07:38:13 PM 38.2555 -86.8534 346° North 423 487 38,000  Level FlightAware ADS-B
Tue 07:39:00 PM 38.3431 -86.8810 346° North 426 490 38,000 33 Level FlightAware ADS-B (YPEF)
Tue 07:41:15 PM 38.6057 -86.9642 346° North 430 495 38,100  Climbing FlightAware ADS-B
Tue 07:43:42 PM 38.8902 -87.0549 346° North 433 498 38,000  Descending FlightAware ADS-B
Tue 07:47:19 PM 39.3145 -87.1919 346° North 441 507 38,100 22 Climbing FlightAware ADS-B (KCVG)
Tue 07:48:11 PM 39.4189 -87.2258 346° North 442 509 38,100 -18 Level FlightAware ADS-B
Tue 07:53:00 PM 39.9588 -87.4864 339° North 429 494 38,000 -201 Descending FlightAware ADS-B
Tue 07:54:10 PM 40.0583 -87.5376 339° North 433 498 36,900 -857 Descending FlightAware ADS-B
Tue 07:55:20 PM 40.2192 -87.6201 339° North 437 503 36,000 -491 Descending FlightAware ADS-B
Tue 07:56:00 PM 40.2826 -87.6529 338° Northwest 437 503 36,000  Level FlightAware ADS-B
Tue 07:56:31 PM 40.3519 -87.6887 339° North 437 503 36,000  Level FlightAware ADS-B
Tue 07:57:11 PM 40.4186 -87.7399 335° Northwest 432 497 36,000  Level FlightAware ADS-B
Tue 07:57:15 PM 40.4253 -87.7481 317° Northwest 405 466 36,000  Level FlightAware ADS-B
Tue 07:58:06 PM 40.4959 -87.8324 318° Northwest 411 473 36,000 -1,053 Level FlightAware ADS-B
Tue 08:00:23 PM 40.6642 -88.0323 318° Northwest 422 486 32,700 -1,310 Descending FlightAware ADS-B
Tue 08:01:00 PM 40.7449 -88.1287 318° Northwest 416 479 32,200 -960 Descending FlightAware ADS-B
Tue 08:02:03 PM 40.8367 -88.2393 318° Northwest 417 480 31,100 -1,485 Descending FlightAware ADS-B
Tue 08:02:37 PM 40.8838 -88.2962 318° Northwest 411 473 29,800 -2,250 Descending FlightAware ADS-B
Tue 08:03:07 PM 40.9254 -88.3464 318° Northwest 407 468 28,700 -1,662 Descending FlightAware ADS-B
Tue 08:03:42 PM 40.9737 -88.4050 318° Northwest 410 472 28,000 -1,920 Descending FlightAware ADS-B
Tue 08:04:22 PM 41.0232 -88.4650 318° Northwest 407 468 26,300 -2,400 Descending FlightAware ADS-B
Tue 08:05:12 PM 41.0981 -88.5560 317° Northwest 391 450 24,400 -2,182 Descending FlightAware ADS-B
Tue 08:06:01 PM 41.1639 -88.6370 317° Northwest 408 470 22,700 -2,175 Descending FlightAware ADS-B
Tue 08:06:32 PM 41.2039 -88.6858 318° Northwest 396 456 21,500 -1,291 Descending FlightAware ADS-B
Tue 08:07:20 PM 41.2690 -88.7652 317° Northwest 376 433 21,000 -361 Descending FlightAware ADS-B
Tue 08:07:55 PM 41.3124 -88.8182 317° Northwest 377 434 21,000  Level FlightAware ADS-B
Tue 08:08:42 PM 41.3691 -88.8881 317° Northwest 346 398 21,000 -462 Level FlightAware ADS-B
Tue 08:09:13 PM 41.4002 -88.9266 317° Northwest 344 396 20,400 -1,754 Descending FlightAware ADS-B
Tue 08:09:47 PM 41.4325 -88.9668 317° Northwest 357 411 19,100 -1,913 Descending FlightAware ADS-B
Tue 08:10:22 PM 41.4879 -89.0355 317° Northwest 359 413 18,200 -1,455 Descending FlightAware ADS-B
Tue 08:10:53 PM 41.5252 -89.0816 317° Northwest 345 397 17,500 -1,268 Descending FlightAware ADS-B
Tue 08:11:33 PM 41.5712 -89.1385 317° Northwest 326 375 16,700 -1,200 Descending FlightAware ADS-B
Tue 08:12:13 PM 41.6138 -89.1917 317° Northwest 324 373 15,900 -1,714 Descending FlightAware ADS-B
Tue 08:12:43 PM 41.6474 -89.2338 317° Northwest 333 383 14,700 -2,042 Descending FlightAware ADS-B
Tue 08:14:37 PM 41.6474 -89.2338 341° North 334 384 11,000 -1,868 Descending FlightAware ADS-B
Tue 08:15:14 PM 41.8425 -89.3406 341° North 343 395 10,000 -2,182 Descending Chicago Center
Tue 08:16:16 PM 41.9486 -89.3325 North 320 368 7,400 -2,323 Descending Chicago Center
Tue 08:17:18 PM 42.0369 -89.3169 North 321 369 5,200 -1,500 Descending Chicago Center
Tue 08:18:20 PM 42.1214 -89.2828 17° North 296 341 4,300 -774 Descending Chicago Center
Tue 08:19:22 PM 42.1725 -89.2194 43° Northeast 264 304 3,600 -677 Descending Chicago Center
Tue 08:21:00 PM 42.1954 -89.0972 20° North  Level Estimated

Login

Don't have an account? Register now (free) for customized features, flight alerts, and more!